createdAt,value
2023-01-22T06:43:46.563Z,81.10
2023-01-22T06:45:53.537Z,75.67
2023-01-22T06:46:55.341Z,70.50
2023-01-22T06:47:57.067Z,62.90
2023-01-22T06:49:01.574Z,54.35
2023-01-22T06:50:04.453Z,56.33
2023-01-22T06:51:06.293Z,53.72
2023-01-22T06:52:08.206Z,47.60
2023-01-22T06:53:10.005Z,45.33
2023-01-22T06:54:12.844Z,43.72
2023-01-22T06:55:14.780Z,39.78
2023-01-22T06:56:16.500Z,41.97
2023-01-22T06:57:18.251Z,39.28
2023-01-22T06:58:19.989Z,43.55
2023-01-22T06:59:22.170Z,39.92
2023-01-22T07:00:24.387Z,38.88
2023-01-22T07:01:26.222Z,36.60
2023-01-22T07:02:27.998Z,37.50
2023-01-22T07:03:30.256Z,33.30
2023-01-22T07:04:32.379Z,39.10
2023-01-22T07:05:34.997Z,36.28
2023-01-22T09:26:25.830Z,11.90
2023-01-22T09:27:27.617Z,13.63
2023-01-22T09:28:29.522Z,14.73
2023-01-22T09:29:31.516Z,13.70
2023-01-22T09:30:33.472Z,13.10
2023-01-22T09:31:36.557Z,13.85
2023-01-22T09:32:38.560Z,10.15
2023-01-22T09:33:40.589Z,11.43
2023-01-22T09:34:42.420Z,11.85
2023-01-22T09:35:44.276Z,10.43
2023-01-22T09:36:46.560Z,11.85
2023-01-22T09:37:48.353Z,13.00
2023-01-22T09:38:53.166Z,11.18
2023-01-22T09:39:55.092Z,11.95
2023-01-22T09:40:58.910Z,11.70
2023-01-22T09:42:03.519Z,13.02
2023-01-22T09:43:23.885Z,10.40
2023-01-22T09:44:43.447Z,11.23
2023-01-22T09:45:46.975Z,10.48
2023-01-22T09:46:58.531Z,11.93
2023-01-22T09:48:06.798Z,11.30
2023-01-22T09:49:21.929Z,10.48
2023-01-22T09:50:30.450Z,14.77
2023-01-22T09:51:33.492Z,13.18
2023-01-22T09:52:39.425Z,11.10
2023-01-22T09:53:43.502Z,13.43
2023-01-22T09:54:47.299Z,16.42
2023-01-22T09:55:54.611Z,12.55
2023-01-22T09:56:59.598Z,13.45
2023-01-22T09:58:05.647Z,16.42
2023-01-22T09:59:19.579Z,15.35
2023-01-22T10:00:41.082Z,14.77
2023-01-22T10:02:55.882Z,17.58
2023-01-22T10:04:06.438Z,17.27
2023-01-22T10:05:28.900Z,12.85
2023-01-22T10:06:38.309Z,13.15
2023-01-22T10:07:45.227Z,11.38
2023-01-22T10:08:49.982Z,11.70
2023-01-22T10:09:55.740Z,12.73
2023-01-22T10:11:01.017Z,10.50
2023-01-22T10:15:23.667Z,13.30
2023-01-22T10:16:30.356Z,10.60
